Time;durP1;ratioP1;P1;durP2;ratioP2;P2;SDS_P1;SDS_P2;PMS_P1;PMS_P2;Temp;Humidity;BMP_temperature;BMP_pressure;BME280_temperature;BME280_humidity;BME280_pressure;Samples;Min_cycle;Max_cycle;Signal;HPM_P1;HPM_P2
2021/12/01 00:02:16;;;;;;;16.83;8.85;;;;;;;;;;4991542;28;20042;-70
2021/12/01 00:04:41;;;;;;;10.40;5.57;;;;;;;;;;4990810;28;20074;-71
2021/12/01 00:07:08;;;;;;;11.23;6.25;;;;;;;;;;4989564;28;20038;-70
2021/12/01 00:09:34;;;;;;;10.23;6.15;;;;;;;;;;4991384;28;20029;-65
2021/12/01 00:12:00;;;;;;;7.25;4.80;;;;;;;;;;4991836;28;20038;-71
2021/12/01 00:14:25;;;;;;;6.68;4.35;;;;;;;;;;4988201;28;20049;-69
2021/12/01 00:16:51;;;;;;;8.75;4.93;;;;;;;;;;4990366;28;20030;-70
2021/12/01 00:19:17;;;;;;;7.95;5.00;;;;;;;;;;4981259;28;20051;-71
2021/12/01 00:21:42;;;;;;;8.25;4.95;;;;;;;;;;4986063;28;20041;-69
2021/12/01 00:24:07;;;;;;;7.07;3.90;;;;;;;;;;4981137;28;20041;-69
2021/12/01 00:26:33;;;;;;;7.88;5.05;;;;;;;;;;4984728;28;20034;-70
2021/12/01 00:28:58;;;;;;;7.15;4.60;;;;;;;;;;4989120;28;20034;-70
2021/12/01 00:31:24;;;;;;;9.05;5.03;;;;;;;;;;4991686;28;20042;-70
2021/12/01 00:33:49;;;;;;;8.82;5.22;;;;;;;;;;4990568;28;20108;-70
2021/12/01 00:36:15;;;;;;;8.90;5.63;;;;;;;;;;4991067;28;20041;-69
2021/12/01 00:38:42;;;;;;;7.65;4.35;;;;;;;;;;4985756;28;20039;-69
2021/12/01 00:41:13;;;;;;;9.23;5.45;;;;;;;;;;4983734;28;20078;-70
2021/12/01 00:43:39;;;;;;;8.88;4.97;;;;;;;;;;4989444;28;20034;-65
2021/12/01 00:46:19;;;;;;;7.75;4.72;;;;;;;;;;4991062;28;20038;-69
2021/12/01 00:48:44;;;;;;;8.10;5.05;;;;;;;;;;4991362;28;20084;-68
2021/12/01 00:51:10;;;;;;;6.35;4.22;;;;;;;;;;4989467;28;20492;-69
2021/12/01 00:53:36;;;;;;;7.88;5.38;;;;;;;;;;4978844;28;20377;-67
2021/12/01 00:56:01;;;;;;;7.25;4.43;;;;;;;;;;4980154;28;20034;-69
2021/12/01 00:58:26;;;;;;;6.25;3.75;;;;;;;;;;4985236;28;20034;-68
2021/12/01 01:00:52;;;;;;;6.53;4.50;;;;;;;;;;4977070;28;20033;-67
2021/12/01 01:03:18;;;;;;;7.53;3.55;;;;;;;;;;4980030;28;20075;-67
2021/12/01 01:05:44;;;;;;;8.60;5.53;;;;;;;;;;4976419;28;20433;-66
2021/12/01 01:08:10;;;;;;;6.05;4.43;;;;;;;;;;4989162;28;20034;-67
2021/12/01 01:18:41;;;;;;;8.15;4.88;;;;;;;;;;4989687;28;20065;-64
2021/12/01 01:21:07;;;;;;;6.95;3.75;;;;;;;;;;4990230;28;20030;-67
2021/12/01 01:23:34;;;;;;;7.60;3.95;;;;;;;;;;4991571;28;20030;-67
2021/12/01 01:26:04;;;;;;;6.20;4.03;;;;;;;;;;4989046;28;20066;-65
2021/12/01 01:28:29;;;;;;;6.35;3.58;;;;;;;;;;4991235;28;20101;-66
2021/12/01 01:30:55;;;;;;;6.68;4.60;;;;;;;;;;4989586;28;20126;-67
2021/12/01 01:33:21;;;;;;;6.47;4.30;;;;;;;;;;4981730;28;20477;-66
2021/12/01 01:35:47;;;;;;;5.53;3.53;;;;;;;;;;4973391;28;20026;-65
2021/12/01 01:38:12;;;;;;;4.82;3.05;;;;;;;;;;4991894;28;20490;-67
2021/12/01 01:40:38;;;;;;;4.68;2.75;;;;;;;;;;5002107;28;20030;-67
2021/12/01 01:43:05;;;;;;;8.32;2.90;;;;;;;;;;4985498;28;20038;-67
2021/12/01 01:45:30;;;;;;;3.80;2.20;;;;;;;;;;4982985;28;20034;-66
2021/12/01 01:48:06;;;;;;;3.42;2.03;;;;;;;;;;4982297;28;20045;-66
2021/12/01 01:50:37;;;;;;;4.60;2.30;;;;;;;;;;4988495;28;20030;-67
2021/12/01 01:53:07;;;;;;;4.43;2.42;;;;;;;;;;4989876;28;20777;-67
2021/12/01 01:55:32;;;;;;;2.55;2.00;;;;;;;;;;4980235;28;20477;-66
2021/12/01 01:57:58;;;;;;;2.40;1.90;;;;;;;;;;4989137;28;20069;-66
2021/12/01 02:00:26;;;;;;;4.07;2.20;;;;;;;;;;4985905;28;20061;-67
2021/12/01 02:02:52;;;;;;;3.30;2.13;;;;;;;;;;5004114;28;20038;-66
2021/12/01 02:05:17;;;;;;;3.15;2.03;;;;;;;;;;4990330;28;20094;-67
2021/12/01 02:07:43;;;;;;;3.45;1.90;;;;;;;;;;4985718;28;20056;-63
2021/12/01 02:10:09;;;;;;;3.55;2.42;;;;;;;;;;4990771;28;20384;-67
2021/12/01 02:12:38;;;;;;;3.05;2.22;;;;;;;;;;4989911;28;20081;-68
2021/12/01 02:15:03;;;;;;;2.78;1.80;;;;;;;;;;4988945;28;20622;-67
2021/12/01 02:17:29;;;;;;;10.93;2.58;;;;;;;;;;4988096;28;20038;-67
2021/12/01 02:19:55;;;;;;;3.95;2.30;;;;;;;;;;4990437;28;20042;-67
2021/12/01 02:22:21;;;;;;;3.50;2.13;;;;;;;;;;4989704;28;20121;-68
2021/12/01 02:24:46;;;;;;;3.33;1.73;;;;;;;;;;4989206;28;20484;-67
2021/12/01 02:27:13;;;;;;;3.30;2.05;;;;;;;;;;4992033;28;20061;-69
2021/12/01 02:29:39;;;;;;;2.75;2.03;;;;;;;;;;4986064;28;20046;-71
2021/12/01 02:32:04;;;;;;;4.30;1.95;;;;;;;;;;4991548;28;20030;-70
2021/12/01 02:34:34;;;;;;;2.38;1.77;;;;;;;;;;4993866;28;20524;-70
2021/12/01 02:36:59;;;;;;;2.67;1.52;;;;;;;;;;4990701;28;20030;-69
2021/12/01 02:39:26;;;;;;;2.88;2.08;;;;;;;;;;4987257;28;20030;-70
2021/12/01 02:41:54;;;;;;;3.65;2.20;;;;;;;;;;4994432;28;20057;-70
2021/12/01 02:44:20;;;;;;;2.60;1.90;;;;;;;;;;4995121;28;20034;-72
2021/12/01 02:46:46;;;;;;;2.42;1.75;;;;;;;;;;4996413;28;20101;-65
2021/12/01 02:49:12;;;;;;;3.10;2.00;;;;;;;;;;4991662;28;20070;-74
2021/12/01 02:51:38;;;;;;;2.83;1.80;;;;;;;;;;4989217;28;20031;-76
2021/12/01 02:54:06;;;;;;;2.85;2.08;;;;;;;;;;5004824;28;20592;-76
2021/12/01 02:56:33;;;;;;;4.30;2.60;;;;;;;;;;4993688;28;20126;-74
2021/12/01 02:59:01;;;;;;;4.22;2.70;;;;;;;;;;5000145;28;20073;-76
2021/12/01 03:01:28;;;;;;;3.50;2.38;;;;;;;;;;4999742;28;20069;-68
2021/12/01 03:03:54;;;;;;;3.40;2.38;;;;;;;;;;5001948;28;20074;-66
2021/12/01 03:06:22;;;;;;;4.53;2.50;;;;;;;;;;4992090;28;20492;-67
2021/12/01 03:08:48;;;;;;;2.97;2.22;;;;;;;;;;4986025;28;20404;-63
2021/12/01 03:11:15;;;;;;;6.43;2.67;;;;;;;;;;4994947;28;20041;-66
2021/12/01 03:13:40;;;;;;;4.13;2.55;;;;;;;;;;5008090;28;20031;-67
2021/12/01 03:16:07;;;;;;;3.35;2.38;;;;;;;;;;4994226;28;20106;-65
2021/12/01 03:18:32;;;;;;;4.40;2.70;;;;;;;;;;4993121;28;20145;-66
2021/12/01 03:20:58;;;;;;;4.32;2.92;;;;;;;;;;4982699;28;20129;-65
2021/12/01 03:23:24;;;;;;;5.35;3.15;;;;;;;;;;4986592;28;20031;-66
2021/12/01 03:25:50;;;;;;;4.85;2.78;;;;;;;;;;4993619;28;20033;-62
2021/12/01 03:28:16;;;;;;;5.78;3.60;;;;;;;;;;4983777;28;20160;-66
2021/12/01 03:30:42;;;;;;;5.18;3.38;;;;;;;;;;4993289;28;20034;-67
2021/12/01 03:33:11;;;;;;;7.10;4.38;;;;;;;;;;4992425;28;20030;-66
2021/12/01 03:35:38;;;;;;;5.65;3.35;;;;;;;;;;4993152;28;20045;-67
2021/12/01 03:38:04;;;;;;;5.63;3.53;;;;;;;;;;4992089;28;20037;-66
2021/12/01 03:40:29;;;;;;;7.43;4.78;;;;;;;;;;4996148;28;20034;-66
2021/12/01 03:42:55;;;;;;;5.70;3.80;;;;;;;;;;4994638;28;20022;-66
2021/12/01 03:45:20;;;;;;;6.70;3.22;;;;;;;;;;4991947;28;20030;-66
2021/12/01 03:47:46;;;;;;;7.18;4.60;;;;;;;;;;5004062;28;20068;-65
2021/12/01 03:50:12;;;;;;;7.03;4.18;;;;;;;;;;4993681;28;20457;-67
2021/12/01 03:52:38;;;;;;;6.13;3.55;;;;;;;;;;4993316;28;20035;-67
2021/12/01 03:55:05;;;;;;;5.63;3.78;;;;;;;;;;4993779;28;20038;-67
2021/12/01 03:57:30;;;;;;;7.18;4.35;;;;;;;;;;4993341;28;20045;-66
2021/12/01 03:59:56;;;;;;;6.50;3.30;;;;;;;;;;4992290;28;20038;-66
2021/12/01 04:02:22;;;;;;;6.78;4.00;;;;;;;;;;4993303;28;20113;-66
2021/12/01 04:04:47;;;;;;;6.75;3.60;;;;;;;;;;4994020;28;20108;-64
2021/12/01 04:07:12;;;;;;;7.50;4.20;;;;;;;;;;4992935;28;20031;-66
2021/12/01 04:09:42;;;;;;;7.32;4.07;;;;;;;;;;4993735;28;20065;-67
2021/12/01 04:12:08;;;;;;;7.93;4.60;;;;;;;;;;4992239;28;20157;-65
2021/12/01 04:14:33;;;;;;;12.60;4.57;;;;;;;;;;4993473;28;20475;-65
2021/12/01 04:16:59;;;;;;;7.00;4.68;;;;;;;;;;4991704;28;20038;-66
2021/12/01 04:19:24;;;;;;;6.13;3.70;;;;;;;;;;4993465;28;20121;-66
2021/12/01 04:21:50;;;;;;;5.82;3.72;;;;;;;;;;4991744;28;20142;-63
2021/12/01 04:24:15;;;;;;;6.72;3.90;;;;;;;;;;4993347;28;20480;-66
2021/12/01 04:26:41;;;;;;;8.20;4.60;;;;;;;;;;4993100;28;20116;-66
2021/12/01 04:29:06;;;;;;;6.47;4.30;;;;;;;;;;4992393;28;20034;-66
2021/12/01 04:31:35;;;;;;;6.97;3.83;;;;;;;;;;4992648;28;20038;-64
2021/12/01 04:34:02;;;;;;;7.55;4.57;;;;;;;;;;4976688;28;20030;-66
2021/12/01 04:36:37;;;;;;;7.95;4.82;;;;;;;;;;4994122;28;20034;-66
2021/12/01 04:39:06;;;;;;;10.80;5.55;;;;;;;;;;4989485;28;20149;-65
2021/12/01 04:41:36;;;;;;;6.22;3.83;;;;;;;;;;4988945;28;20046;-65
2021/12/01 04:44:08;;;;;;;7.60;4.30;;;;;;;;;;4992258;28;20069;-65
2021/12/01 04:46:40;;;;;;;6.18;3.90;;;;;;;;;;4992875;28;20030;-65
2021/12/01 04:49:05;;;;;;;6.68;3.70;;;;;;;;;;4991815;28;20034;-65
2021/12/01 04:51:30;;;;;;;6.68;3.50;;;;;;;;;;4992555;28;20057;-66
2021/12/01 04:53:58;;;;;;;5.75;2.90;;;;;;;;;;4991325;28;20057;-65
2021/12/01 04:56:24;;;;;;;6.93;3.88;;;;;;;;;;4992770;28;20457;-66
2021/12/01 04:58:50;;;;;;;4.63;2.95;;;;;;;;;;4992125;28;20077;-66
2021/12/01 05:01:17;;;;;;;5.85;3.28;;;;;;;;;;4992025;28;20030;-65
2021/12/01 05:03:42;;;;;;;6.32;4.20;;;;;;;;;;4992197;28;20041;-66
2021/12/01 05:06:08;;;;;;;7.03;3.47;;;;;;;;;;4990802;28;20034;-65
2021/12/01 05:08:33;;;;;;;6.57;3.70;;;;;;;;;;4990474;28;20058;-66
2021/12/01 05:10:59;;;;;;;7.32;3.33;;;;;;;;;;4987608;28;20034;-65
2021/12/01 05:13:24;;;;;;;5.93;3.92;;;;;;;;;;4992608;28;20100;-66
2021/12/01 05:15:51;;;;;;;5.57;3.55;;;;;;;;;;4992496;28;20030;-67
2021/12/01 05:18:17;;;;;;;6.07;3.50;;;;;;;;;;4991555;28;20393;-68
2021/12/01 05:20:42;;;;;;;6.00;3.53;;;;;;;;;;4992583;28;20032;-68
2021/12/01 05:23:08;;;;;;;7.38;4.05;;;;;;;;;;4991409;28;20042;-69
2021/12/01 05:25:33;;;;;;;4.93;3.08;;;;;;;;;;4992551;28;20496;-67
2021/12/01 05:27:58;;;;;;;7.30;3.50;;;;;;;;;;4985597;28;20526;-70
2021/12/01 05:30:24;;;;;;;5.57;3.35;;;;;;;;;;4990632;28;20045;-70
2021/12/01 05:32:49;;;;;;;5.82;3.67;;;;;;;;;;4988565;28;20042;-70
2021/12/01 05:35:15;;;;;;;5.43;3.08;;;;;;;;;;4990113;28;20030;-73
2021/12/01 05:37:40;;;;;;;6.53;3.72;;;;;;;;;;4974822;28;20047;-73
2021/12/01 05:40:06;;;;;;;4.63;2.80;;;;;;;;;;4974250;28;20374;-74
2021/12/01 05:42:31;;;;;;;5.53;3.38;;;;;;;;;;4980853;28;20038;-73
2021/12/01 05:44:57;;;;;;;5.70;2.15;;;;;;;;;;4981729;28;20038;-66
2021/12/01 05:47:23;;;;;;;4.00;2.60;;;;;;;;;;4992311;28;20489;-73
2021/12/01 05:49:49;;;;;;;4.13;2.63;;;;;;;;;;4992339;28;20073;-72
2021/12/01 05:52:16;;;;;;;4.25;2.50;;;;;;;;;;4991530;28;20054;-72
2021/12/01 05:54:43;;;;;;;6.43;2.70;;;;;;;;;;4991890;28;20043;-70
2021/12/01 05:57:09;;;;;;;3.72;2.10;;;;;;;;;;4989087;28;20527;-71
2021/12/01 05:59:35;;;;;;;3.95;2.20;;;;;;;;;;4991438;28;20030;-70
2021/12/01 06:02:00;;;;;;;3.55;2.13;;;;;;;;;;4988202;28;20026;-76
2021/12/01 06:04:27;;;;;;;4.30;2.45;;;;;;;;;;4993668;28;20034;-76
2021/12/01 06:06:53;;;;;;;3.47;2.00;;;;;;;;;;5000894;28;20026;-76
2021/12/01 06:09:18;;;;;;;4.55;2.10;;;;;;;;;;4994986;28;20093;-76
2021/12/01 06:11:46;;;;;;;3.70;2.28;;;;;;;;;;4994629;28;20362;-74
2021/12/01 06:14:14;;;;;;;3.22;2.08;;;;;;;;;;4984388;28;20118;-76
2021/12/01 06:16:42;;;;;;;6.03;2.33;;;;;;;;;;4977970;28;20041;-74
2021/12/01 06:19:07;;;;;;;7.50;2.10;;;;;;;;;;4975519;28;20421;-75
2021/12/01 06:21:32;;;;;;;2.95;1.85;;;;;;;;;;4977955;28;20034;-77
2021/12/01 06:23:58;;;;;;;9.90;2.33;;;;;;;;;;4976713;28;20034;-69
2021/12/01 06:26:23;;;;;;;4.97;2.00;;;;;;;;;;4995535;28;20038;-74
2021/12/01 06:28:49;;;;;;;4.65;2.22;;;;;;;;;;4996377;28;20045;-77
2021/12/01 06:31:14;;;;;;;2.88;2.00;;;;;;;;;;4990070;28;20516;-78
2021/12/01 06:33:39;;;;;;;3.17;2.10;;;;;;;;;;4976635;28;20038;-77
2021/12/01 06:36:05;;;;;;;4.68;2.63;;;;;;;;;;4976899;28;20033;-73
2021/12/01 06:38:32;;;;;;;5.10;2.40;;;;;;;;;;4976361;28;20065;-75
2021/12/01 06:40:57;;;;;;;5.53;2.38;;;;;;;;;;4979581;28;20030;-67
2021/12/01 06:43:23;;;;;;;3.28;2.08;;;;;;;;;;4994920;28;20032;-78
2021/12/01 06:45:48;;;;;;;3.55;2.25;;;;;;;;;;4993559;28;20039;-71
2021/12/01 06:48:14;;;;;;;4.40;2.50;;;;;;;;;;4994226;28;20061;-73
2021/12/01 06:50:39;;;;;;;3.78;2.30;;;;;;;;;;4993773;28;20440;-73
2021/12/01 06:53:05;;;;;;;3.58;2.33;;;;;;;;;;4973877;28;20042;-73
2021/12/01 06:55:30;;;;;;;3.05;2.03;;;;;;;;;;4976791;28;20035;-73
2021/12/01 06:57:56;;;;;;;3.60;2.35;;;;;;;;;;4985534;28;20038;-73
2021/12/01 07:00:22;;;;;;;4.15;2.67;;;;;;;;;;4993467;28;20030;-71
2021/12/01 07:02:47;;;;;;;3.17;2.17;;;;;;;;;;4995066;28;20092;-73
2021/12/01 07:05:13;;;;;;;4.40;2.50;;;;;;;;;;4994526;28;20035;-72
2021/12/01 07:07:39;;;;;;;6.18;3.00;;;;;;;;;;4989824;28;20030;-69
2021/12/01 07:10:07;;;;;;;6.15;3.55;;;;;;;;;;4992546;28;20488;-71
2021/12/01 07:12:32;;;;;;;6.20;2.55;;;;;;;;;;4993875;28;20080;-71
2021/12/01 07:14:58;;;;;;;6.47;3.17;;;;;;;;;;4994739;28;20113;-67
2021/12/01 07:17:23;;;;;;;7.38;3.92;;;;;;;;;;4993478;28;20026;-72
2021/12/01 07:19:49;;;;;;;4.22;2.47;;;;;;;;;;4987465;28;20042;-77
2021/12/01 07:22:15;;;;;;;7.30;3.83;;;;;;;;;;4993667;28;20479;-74
2021/12/01 07:24:41;;;;;;;6.15;2.63;;;;;;;;;;4989639;28;20131;-70
2021/12/01 07:27:07;;;;;;;6.15;3.45;;;;;;;;;;4990117;28;20031;-68
2021/12/01 07:29:35;;;;;;;6.20;3.60;;;;;;;;;;4974917;28;20053;-73
2021/12/01 07:32:00;;;;;;;7.90;4.88;;;;;;;;;;4976373;28;20035;-68
2021/12/01 07:34:26;;;;;;;8.20;4.07;;;;;;;;;;4993847;28;20041;-71
2021/12/01 07:36:51;;;;;;;7.30;4.45;;;;;;;;;;4992379;28;20030;-73
2021/12/01 07:39:19;;;;;;;7.80;4.28;;;;;;;;;;4986107;28;20482;-70
2021/12/01 07:41:44;;;;;;;5.72;3.55;;;;;;;;;;4992211;28;20030;-72
2021/12/01 07:44:10;;;;;;;8.13;4.35;;;;;;;;;;4974303;28;20035;-77
2021/12/01 07:46:35;;;;;;;7.55;4.18;;;;;;;;;;4975093;28;20035;-74
2021/12/01 07:49:01;;;;;;;6.40;3.70;;;;;;;;;;4993100;28;20034;-69
2021/12/01 07:51:26;;;;;;;7.78;3.95;;;;;;;;;;4992631;28;20071;-72
2021/12/01 07:53:54;;;;;;;6.75;3.70;;;;;;;;;;4974979;28;20031;-71
2021/12/01 07:56:19;;;;;;;7.13;3.83;;;;;;;;;;4977553;28;20169;-78
2021/12/01 07:58:44;;;;;;;4.13;2.47;;;;;;;;;;4993615;28;20113;-72
2021/12/01 08:01:10;;;;;;;5.78;3.10;;;;;;;;;;4992976;28;20435;-73
2021/12/01 08:03:35;;;;;;;5.90;2.65;;;;;;;;;;4991245;28;20037;-74
2021/12/01 08:06:00;;;;;;;5.13;2.63;;;;;;;;;;4993458;28;20587;-75
2021/12/01 08:08:26;;;;;;;4.72;2.70;;;;;;;;;;4985333;28;20037;-75
2021/12/01 08:10:51;;;;;;;5.93;2.90;;;;;;;;;;4993428;28;20061;-74
2021/12/01 08:13:17;;;;;;;5.78;3.17;;;;;;;;;;4992759;28;20106;-75
2021/12/01 08:15:45;;;;;;;2.25;1.65;;;;;;;;;;4991246;28;20198;-75
2021/12/01 08:18:10;;;;;;;2.78;1.60;;;;;;;;;;4990785;28;20124;-72
2021/12/01 08:20:37;;;;;;;2.50;1.30;;;;;;;;;;4993564;28;20424;-73
2021/12/01 08:23:02;;;;;;;1.55;1.20;;;;;;;;;;4991950;28;20080;-70
2021/12/01 08:25:28;;;;;;;2.03;1.25;;;;;;;;;;4972713;28;20039;-73
2021/12/01 08:27:53;;;;;;;2.17;1.10;;;;;;;;;;4986523;28;20047;-72
2021/12/01 08:30:19;;;;;;;1.17;0.95;;;;;;;;;;4992080;28;20026;-73
2021/12/01 08:32:47;;;;;;;1.20;1.10;;;;;;;;;;4993870;28;20113;-74
2021/12/01 08:35:14;;;;;;;1.40;1.10;;;;;;;;;;4992179;28;20042;-70
2021/12/01 08:37:39;;;;;;;1.48;0.98;;;;;;;;;;4993052;28;20105;-74
2021/12/01 08:40:05;;;;;;;2.60;1.58;;;;;;;;;;4992817;28;20065;-69
2021/12/01 08:42:31;;;;;;;1.67;1.30;;;;;;;;;;4992531;28;20118;-71
2021/12/01 08:44:56;;;;;;;2.72;1.08;;;;;;;;;;4992854;28;20121;-72
2021/12/01 08:47:26;;;;;;;2.35;1.38;;;;;;;;;;4991961;28;20037;-71
2021/12/01 08:49:52;;;;;;;4.88;1.80;;;;;;;;;;4990990;28;20080;-74
2021/12/01 08:52:18;;;;;;;1.23;1.13;;;;;;;;;;4990090;28;20432;-76
2021/12/01 08:54:43;;;;;;;1.88;1.15;;;;;;;;;;4992575;28;20038;-74
2021/12/01 08:57:09;;;;;;;1.65;1.33;;;;;;;;;;4991154;28;20083;-65
2021/12/01 08:59:36;;;;;;;3.15;1.48;;;;;;;;;;4992732;28;20487;-72
2021/12/01 09:02:02;;;;;;;5.70;2.63;;;;;;;;;;5007705;28;20058;-71
2021/12/01 09:04:28;;;;;;;1.63;1.20;;;;;;;;;;4976150;28;20653;-71
2021/12/01 09:06:54;;;;;;;1.15;0.90;;;;;;;;;;4987703;28;20142;-79
2021/12/01 09:09:20;;;;;;;1.95;1.23;;;;;;;;;;4991334;28;20034;-78
2021/12/01 09:11:47;;;;;;;1.08;0.98;;;;;;;;;;4991531;28;20038;-72
2021/12/01 09:14:12;;;;;;;1.60;1.15;;;;;;;;;;4990080;28;20030;-71
2021/12/01 09:16:40;;;;;;;0.93;0.80;;;;;;;;;;4991446;28;20428;-73
2021/12/01 09:19:05;;;;;;;2.30;1.17;;;;;;;;;;4990613;28;20054;-73
2021/12/01 09:21:30;;;;;;;1.42;1.00;;;;;;;;;;4990634;28;20083;-74
2021/12/01 09:23:56;;;;;;;2.58;1.00;;;;;;;;;;4991951;28;20034;-71
2021/12/01 09:26:21;;;;;;;1.67;1.00;;;;;;;;;;4991622;28;20026;-72
2021/12/01 09:28:47;;;;;;;1.15;1.00;;;;;;;;;;4992248;28;20392;-73
2021/12/01 09:31:12;;;;;;;1.05;0.90;;;;;;;;;;4991399;28;20045;-70
2021/12/01 09:33:38;;;;;;;1.60;1.10;;;;;;;;;;4991609;28;20037;-70
2021/12/01 09:36:04;;;;;;;1.20;0.88;;;;;;;;;;4992029;28;20388;-71
2021/12/01 09:38:30;;;;;;;1.60;1.10;;;;;;;;;;4985657;28;20041;-70
2021/12/01 09:40:57;;;;;;;1.10;1.00;;;;;;;;;;4988586;28;20038;-71
2021/12/01 09:43:25;;;;;;;2.03;1.30;;;;;;;;;;4990867;28;20065;-71
2021/12/01 09:45:50;;;;;;;0.90;0.90;;;;;;;;;;4992540;28;20037;-72
2021/12/01 09:48:16;;;;;;;0.90;0.90;;;;;;;;;;4991329;28;20115;-70
2021/12/01 09:50:42;;;;;;;1.10;1.00;;;;;;;;;;4992583;28;20034;-71
2021/12/01 09:53:07;;;;;;;1.27;1.02;;;;;;;;;;4991324;28;20097;-65
2021/12/01 09:55:33;;;;;;;1.10;1.00;;;;;;;;;;4991012;28;20085;-69
2021/12/01 09:58:11;;;;;;;1.35;1.10;;;;;;;;;;4992408;28;20345;-70
2021/12/01 10:00:43;;;;;;;0.80;0.80;;;;;;;;;;4992293;28;20042;-73
2021/12/01 10:03:09;;;;;;;0.73;0.70;;;;;;;;;;4989345;28;20034;-67
2021/12/01 10:06:09;;;;;;;1.90;0.93;;;;;;;;;;4991067;28;20507;-70
2021/12/01 10:08:40;;;;;;;0.82;0.82;;;;;;;;;;4988418;28;20553;-70
2021/12/01 10:11:23;;;;;;;2.92;1.15;;;;;;;;;;4991998;28;20041;-73
2021/12/01 10:13:53;;;;;;;1.17;0.90;;;;;;;;;;4992063;28;20042;-79
2021/12/01 10:16:19;;;;;;;2.03;1.00;;;;;;;;;;4990888;28;20747;-71
2021/12/01 10:18:46;;;;;;;1.05;0.88;;;;;;;;;;4991732;28;20078;-69
2021/12/01 10:21:16;;;;;;;2.13;1.35;;;;;;;;;;4991077;28;20034;-70
2021/12/01 10:23:54;;;;;;;1.80;1.30;;;;;;;;;;4991946;28;20038;-70
2021/12/01 10:26:38;;;;;;;2.88;1.20;;;;;;;;;;4989006;28;20435;-74
2021/12/01 10:29:10;;;;;;;0.70;0.70;;;;;;;;;;4992159;28;20030;-72
2021/12/01 10:31:43;;;;;;;2.72;1.50;;;;;;;;;;4991509;28;20041;-75
2021/12/01 10:34:26;;;;;;;2.88;1.35;;;;;;;;;;4990161;28;20046;-68
2021/12/01 10:37:22;;;;;;;1.88;1.30;;;;;;;;;;4991397;28;20044;-73
2021/12/01 10:40:04;;;;;;;3.90;1.92;;;;;;;;;;4990558;28;20046;-74
2021/12/01 10:42:30;;;;;;;3.75;1.40;;;;;;;;;;4990983;28;20480;-76
2021/12/01 10:45:06;;;;;;;1.20;1.10;;;;;;;;;;4991531;28;20041;-72
2021/12/01 10:47:41;;;;;;;1.67;1.40;;;;;;;;;;4990935;28;20038;-71
2021/12/01 10:50:09;;;;;;;2.63;1.70;;;;;;;;;;4995144;28;20084;-67
2021/12/01 10:52:37;;;;;;;2.38;1.70;;;;;;;;;;4995104;28;20038;-73
2021/12/01 10:55:12;;;;;;;2.53;1.63;;;;;;;;;;4994035;28;20398;-70
2021/12/01 10:57:49;;;;;;;2.83;1.67;;;;;;;;;;4993093;28;20113;-72
2021/12/01 11:00:17;;;;;;;1.88;1.60;;;;;;;;;;4994591;28;20048;-71
2021/12/01 11:02:43;;;;;;;2.85;1.90;;;;;;;;;;4993902;28;20476;-78
2021/12/01 11:05:08;;;;;;;3.15;2.35;;;;;;;;;;4993591;28;20117;-70
2021/12/01 11:07:34;;;;;;;2.97;1.95;;;;;;;;;;4994119;28;20118;-77
2021/12/01 11:10:13;;;;;;;1.85;1.55;;;;;;;;;;4995120;28;20066;-76
2021/12/01 11:12:40;;;;;;;2.78;1.88;;;;;;;;;;4994837;28;20058;-75
2021/12/01 11:15:20;;;;;;;4.15;2.30;;;;;;;;;;4995029;28;20038;-75
2021/12/01 11:17:46;;;;;;;5.83;3.13;;;;;;;;;;4994925;28;20038;-74
2021/12/01 11:20:11;;;;;;;2.83;2.00;;;;;;;;;;4993703;28;20047;-74
2021/12/01 11:22:37;;;;;;;4.18;2.60;;;;;;;;;;4994562;28;20451;-77
2021/12/01 11:25:24;;;;;;;4.35;2.53;;;;;;;;;;4993870;28;20081;-77
2021/12/01 11:27:50;;;;;;;3.92;2.20;;;;;;;;;;4993382;28;20046;-71
2021/12/01 11:30:16;;;;;;;4.85;3.10;;;;;;;;;;4993930;28;20402;-71
2021/12/01 11:32:41;;;;;;;5.22;2.50;;;;;;;;;;4992790;28;20038;-73
2021/12/01 11:35:07;;;;;;;3.75;2.70;;;;;;;;;;4994318;28;20034;-67
2021/12/01 11:37:33;;;;;;;3.22;2.40;;;;;;;;;;4993048;28;20445;-73
2021/12/01 11:39:59;;;;;;;4.07;2.80;;;;;;;;;;4994343;28;20428;-72
2021/12/01 11:42:24;;;;;;;3.92;2.72;;;;;;;;;;4991696;28;20129;-76
2021/12/01 11:44:51;;;;;;;3.92;2.17;;;;;;;;;;4994326;28;20153;-77
2021/12/01 11:47:16;;;;;;;3.40;2.20;;;;;;;;;;4992905;28;20035;-77
2021/12/01 11:49:43;;;;;;;5.18;2.15;;;;;;;;;;4994066;28;20042;-71
2021/12/01 11:52:10;;;;;;;3.15;2.28;;;;;;;;;;4993614;28;20034;-68
2021/12/01 11:54:44;;;;;;;2.90;1.60;;;;;;;;;;4993033;28;20030;-72
2021/12/01 11:57:10;;;;;;;2.65;2.00;;;;;;;;;;4993186;28;20039;-68
2021/12/01 11:59:49;;;;;;;3.78;1.80;;;;;;;;;;4992255;28;20112;-71
2021/12/01 12:02:22;;;;;;;1.90;1.40;;;;;;;;;;4992831;28;20064;-74
2021/12/01 12:04:51;;;;;;;2.67;1.63;;;;;;;;;;4988981;28;20038;-72
2021/12/01 12:07:18;;;;;;;3.38;1.52;;;;;;;;;;4993025;28;20038;-69
2021/12/01 12:10:04;;;;;;;3.17;1.42;;;;;;;;;;4985706;28;20042;-73
2021/12/01 12:12:45;;;;;;;3.20;1.95;;;;;;;;;;4992028;28;20037;-72
2021/12/01 12:15:10;;;;;;;4.75;2.22;;;;;;;;;;4992712;28;20041;-68
2021/12/01 12:17:36;;;;;;;4.65;2.00;;;;;;;;;;5008140;28;20034;-71
2021/12/01 12:20:03;;;;;;;4.30;1.90;;;;;;;;;;4992106;28;20484;-72
2021/12/01 12:22:34;;;;;;;2.75;1.65;;;;;;;;;;4992559;28;20062;-71
2021/12/01 12:25:01;;;;;;;5.72;2.35;;;;;;;;;;4992172;28;20599;-73
2021/12/01 12:27:40;;;;;;;4.55;1.52;;;;;;;;;;4991855;28;20049;-73
2021/12/01 12:30:38;;;;;;;10.90;1.70;;;;;;;;;;4992987;28;20389;-72
2021/12/01 12:33:31;;;;;;;3.08;1.23;;;;;;;;;;4993382;28;20368;-74
2021/12/01 12:36:03;;;;;;;3.78;1.65;;;;;;;;;;4991544;28;20035;-74
2021/12/01 12:38:29;;;;;;;2.08;1.38;;;;;;;;;;4990859;28;20038;-68
2021/12/01 12:41:13;;;;;;;2.35;1.30;;;;;;;;;;4982020;28;20117;-70
2021/12/01 12:43:42;;;;;;;6.13;1.38;;;;;;;;;;4973798;28;20038;-73
2021/12/01 12:46:16;;;;;;;1.90;1.10;;;;;;;;;;4990899;28;20043;-69
2021/12/01 12:48:43;;;;;;;5.18;1.67;;;;;;;;;;4992991;28;20550;-74
2021/12/01 12:51:26;;;;;;;3.83;1.40;;;;;;;;;;4992925;28;20030;-68
2021/12/01 12:54:08;;;;;;;7.53;1.75;;;;;;;;;;4992259;28;20042;-73
2021/12/01 12:56:39;;;;;;;3.70;1.27;;;;;;;;;;4992104;28;20088;-76
2021/12/01 12:59:25;;;;;;;;;;;;;;;;;;4993086;28;20053;-71
2021/12/01 13:02:02;;;;;;;3.30;1.42;;;;;;;;;;4992693;28;19917;-74
2021/12/01 13:04:51;;;;;;;4.55;1.73;;;;;;;;;;4990765;28;20108;-77
2021/12/01 13:07:37;;;;;;;2.40;1.20;;;;;;;;;;4990631;28;20022;-70
2021/12/01 13:10:39;;;;;;;7.05;1.70;;;;;;;;;;4992280;28;20085;-72
2021/12/01 13:13:10;;;;;;;1.95;1.45;;;;;;;;;;4992606;28;20492;-74
2021/12/01 13:15:44;;;;;;;4.80;1.48;;;;;;;;;;4997874;28;20038;-74
2021/12/01 13:18:11;;;;;;;3.10;1.58;;;;;;;;;;4982255;28;20084;-70
2021/12/01 13:20:51;;;;;;;4.70;1.67;;;;;;;;;;4992438;28;20030;-73
2021/12/01 13:23:26;;;;;;;2.90;1.20;;;;;;;;;;4991016;28;20034;-72
2021/12/01 13:25:58;;;;;;;2.55;1.50;;;;;;;;;;4992207;28;20113;-76
2021/12/01 13:28:28;;;;;;;4.00;1.67;;;;;;;;;;4991094;28;20108;-74
2021/12/01 13:30:57;;;;;;;2.25;1.38;;;;;;;;;;4992572;28;20026;-78
2021/12/01 13:33:22;;;;;;;3.45;1.67;;;;;;;;;;4990661;28;20046;-78
2021/12/01 13:35:48;;;;;;;4.63;1.58;;;;;;;;;;4991920;28;20045;-75
2021/12/01 13:38:13;;;;;;;4.75;1.52;;;;;;;;;;4989642;28;20026;-72
2021/12/01 13:40:39;;;;;;;4.05;1.98;;;;;;;;;;4992080;28;20388;-75
2021/12/01 13:43:19;;;;;;;5.93;2.20;;;;;;;;;;4992074;28;20045;-73
2021/12/01 13:46:03;;;;;;;3.50;1.80;;;;;;;;;;4987451;28;20030;-75
2021/12/01 13:48:29;;;;;;;3.50;1.80;;;;;;;;;;4980894;28;20117;-75
2021/12/01 13:51:10;;;;;;;11.43;1.85;;;;;;;;;;4991231;28;20384;-74
2021/12/01 13:53:37;;;;;;;4.53;1.92;;;;;;;;;;4991934;28;20109;-74
2021/12/01 13:56:19;;;;;;;5.28;2.00;;;;;;;;;;5005646;28;20121;-79
2021/12/01 13:58:55;;;;;;;5.65;1.95;;;;;;;;;;5009282;28;20026;-77
2021/12/01 14:01:20;;;;;;;3.55;1.50;;;;;;;;;;4986229;28;20034;-74
2021/12/01 14:03:57;;;;;;;3.38;1.70;;;;;;;;;;4992344;28;20030;-75
2021/12/01 14:06:31;;;;;;;3.70;1.58;;;;;;;;;;4990712;28;20030;-74
2021/12/01 14:09:12;;;;;;;3.75;1.50;;;;;;;;;;4992502;28;20038;-77
2021/12/01 14:11:50;;;;;;;3.83;1.75;;;;;;;;;;4991379;28;20038;-73
2021/12/01 14:14:21;;;;;;;6.93;2.42;;;;;;;;;;4991555;28;20113;-71
2021/12/01 14:16:53;;;;;;;1.67;1.33;;;;;;;;;;4987452;28;20516;-75
2021/12/01 14:19:19;;;;;;;2.70;1.42;;;;;;;;;;4972127;28;20213;-71
2021/12/01 14:21:47;;;;;;;7.55;2.80;;;;;;;;;;4991319;28;20092;-72
2021/12/01 14:24:26;;;;;;;2.33;1.25;;;;;;;;;;4994328;28;20034;-70
2021/12/01 14:27:03;;;;;;;3.78;1.40;;;;;;;;;;4991595;28;20085;-72
2021/12/01 14:29:34;;;;;;;3.40;1.40;;;;;;;;;;4976981;28;20058;-73
2021/12/01 14:32:02;;;;;;;3.60;1.40;;;;;;;;;;4987387;28;20138;-73
2021/12/01 14:34:31;;;;;;;3.80;1.98;;;;;;;;;;4993969;28;20303;-70
2021/12/01 14:36:58;;;;;;;5.03;1.80;;;;;;;;;;4993073;28;20058;-73
2021/12/01 14:39:25;;;;;;;8.13;1.90;;;;;;;;;;4994174;28;20033;-71
2021/12/01 14:41:52;;;;;;;4.35;1.55;;;;;;;;;;5026459;28;20105;-72
2021/12/01 14:44:23;;;;;;;4.38;1.35;;;;;;;;;;4993117;28;20081;-70
2021/12/01 14:47:00;;;;;;;5.90;1.70;;;;;;;;;;4994701;28;20073;-70
2021/12/01 14:49:40;;;;;;;5.35;1.60;;;;;;;;;;4992606;28;20113;-71
2021/12/01 14:52:07;;;;;;;2.30;1.45;;;;;;;;;;4992938;28;20068;-72
2021/12/01 14:54:38;;;;;;;3.72;1.55;;;;;;;;;;4993672;28;20026;-72
2021/12/01 14:57:07;;;;;;;4.55;1.75;;;;;;;;;;4994415;28;20113;-71
2021/12/01 14:59:34;;;;;;;1.88;1.35;;;;;;;;;;4994906;28;20117;-73